< Typhoon 199905 1999 Season Typhoon 199907 >
Typhoon 199906 (NO-NAME)
General InformationTrack Information on Google MapsDetailed Wind InformationList of All Images || Disaster Info.ResourceGoogle EarthGE AnimationAtom FeedGeoJSON
Detalied Best Track (Time Zone = UTC)
Year Month Day Hour Lat. Long. Pressure (hPa) Wind (kt) Class Image Chart
1999 7 23 00 17.0 117.0 996 0 2 Image Chart
1999 7 23 06 17.0 116.0 996 0 2 Image Chart
1999 7 23 12 17.0 115.5 996 0 2 Image Chart
1999 7 23 18 17.5 115.0 994 0 2 Image Chart
1999 7 24 00 17.8 114.5 992 0 2 Image Chart
1999 7 24 06 18.2 114.0 992 0 2 Image Chart
1999 7 24 12 18.3 113.5 994 0 2 Image Chart
1999 7 24 18 18.5 113.0 994 0 2 Image Chart
1999 7 25 00 18.7 112.5 994 0 2 Image Chart
1999 7 25 06 19.0 113.0 994 0 2 Image Chart
1999 7 25 12 19.2 113.5 994 0 2 Image Chart
1999 7 25 18 19.4 113.8 994 0 2 Image Chart
1999 7 26 00 19.6 114.0 994 0 2 Image Chart
1999 7 26 06 19.8 114.2 994 0 2 Image Chart
1999 7 26 12 20.0 113.6 992 0 2 Image Chart
1999 7 26 18 20.7 113.9 990 35 3 Image Chart
1999 7 27 00 21.7 114.5 985 40 3 Image Chart
1999 7 27 06 23.0 116.4 990 35 3 Image Chart
1999 7 27 12 24.2 117.4 992 0 2 Image Chart
1999 7 27 18 25.4 117.8 994 0 2 Image Chart
1999 7 28 00 26.8 118.9 996 0 2 Image Chart
1999 7 28 06 27.6 119.2 996 0 2 Image Chart
Japan Meteorological Agency Best Track Data | Correction Date : 2005-03-01
< Typhoon 199905 1999 Season Typhoon 199907 >

Help